Time;durP1;ratioP1;P1;durP2;ratioP2;P2;SDS_P1;SDS_P2;PMS_P1;PMS_P2;Temp;Humidity;BMP_temperature;BMP_pressure;BME280_temperature;BME280_humidity;BME280_pressure;Samples;Min_cycle;Max_cycle;Signal;HPM_P1;HPM_P2
2021/08/13 00:00:56;;;;;;;;;;;;;;;27.34;42.89;97748.00;5069325;28;1120;-88
2021/08/13 00:03:21;;;;;;;;;;;;;;;27.31;42.98;97743.78;5067187;28;1327;-87
2021/08/13 00:05:46;;;;;;;;;;;;;;;27.26;43.43;97744.19;5068100;28;1674;-87
2021/08/13 00:08:12;;;;;;;;;;;;;;;27.36;43.26;97743.41;5058168;28;1369;-88
2021/08/13 00:10:37;;;;;;;;;;;;;;;27.35;43.06;97736.44;5060426;28;1909;-87
2021/08/13 00:13:02;;;;;;;;;;;;;;;27.39;43.00;97733.38;5064415;28;1588;-88
2021/08/13 00:15:27;;;;;;;;;;;;;;;27.34;43.05;97732.94;5068532;28;1375;-87
2021/08/13 00:17:53;;;;;;;;;;;;;;;27.44;42.80;97727.72;5058034;28;1304;-87
2021/08/13 00:20:20;;;;;;;;;;;;;;;27.33;43.34;97728.59;5068509;28;1203;-87
2021/08/13 00:22:45;;;;;;;;;;;;;;;27.29;43.45;97734.28;5059052;28;1542;-88
2021/08/13 00:25:10;;;;;;;;;;;;;;;27.31;43.36;97732.34;5069109;28;1321;-87
2021/08/13 00:27:36;;;;;;;;;;;;;;;27.52;42.78;97736.69;5070188;28;1572;-87
2021/08/13 00:30:02;;;;;;;;;;;;;;;27.40;43.08;97737.72;5059928;28;1998;-88
2021/08/13 00:32:27;;;;;;;;;;;;;;;27.38;43.10;97733.50;5073863;28;1179;-88
2021/08/13 00:34:52;;;;;;;;;;;;;;;27.30;43.17;97739.44;5072966;28;1165;-87
2021/08/13 00:37:17;;;;;;;;;;;;;;;27.35;43.22;97729.31;5071926;28;1654;-88
2021/08/13 00:39:43;;;;;;;;;;;;;;;27.36;43.11;97733.66;5072284;28;1210;-87
2021/08/13 00:42:08;;;;;;;;;;;;;;;27.36;42.87;97741.59;5068609;28;1627;-88
2021/08/13 00:44:33;;;;;;;;;;;;;;;27.38;43.06;97741.47;5061898;28;1191;-88
2021/08/13 00:46:58;;;;;;;;;;;;;;;27.37;42.95;97742.44;5073164;28;1278;-87
2021/08/13 00:49:24;;;;;;;;;;;;;;;27.36;43.21;97740.75;5072115;28;1961;-88
2021/08/13 00:51:49;;;;;;;;;;;;;;;27.30;43.33;97742.09;5071284;28;1548;-88
2021/08/13 00:54:14;;;;;;;;;;;;;;;27.35;43.18;97739.91;5060717;28;1435;-88
2021/08/13 00:56:39;;;;;;;;;;;;;;;27.32;42.99;97737.50;5064103;28;1517;-88
2021/08/13 00:59:05;;;;;;;;;;;;;;;27.39;43.13;97743.97;5066341;28;1485;-88
2021/08/13 01:01:30;;;;;;;;;;;;;;;27.36;43.19;97744.25;5058114;28;1361;-88
2021/08/13 01:03:56;;;;;;;;;;;;;;;27.33;43.38;97741.84;5069361;28;1092;-87
2021/08/13 01:06:21;;;;;;;;;;;;;;;27.42;42.82;97746.38;5062201;28;1029;-88
2021/08/13 01:08:46;;;;;;;;;;;;;;;27.37;43.04;97742.44;5071910;28;1612;-88
2021/08/13 01:11:16;;;;;;;;;;;;;;;27.30;43.40;97742.09;5061125;28;1954;-89
2021/08/13 01:13:50;;;;;;;;;;;;;;;27.32;43.21;97745.44;5059004;28;1578;-90
2021/08/13 01:16:15;;;;;;;;;;;;;;;27.32;43.33;97758.69;5062734;28;1085;-89
2021/08/13 01:18:42;;;;;;;;;;;;;;;27.34;43.02;97754.13;5060522;28;1758;-89
2021/08/13 01:21:22;;;;;;;;;;;;;;;27.31;43.37;97756.19;5060799;28;1634;-89
2021/08/13 01:23:55;;;;;;;;;;;;;;;27.39;43.23;97757.22;5060414;28;1586;-89
2021/08/13 01:26:20;;;;;;;;;;;;;;;27.41;43.01;97768.56;5062298;28;1179;-89
2021/08/13 01:29:04;;;;;;;;;;;;;;;27.39;43.18;97766.97;5061418;28;1558;-89
2021/08/13 01:31:30;;;;;;;;;;;;;;;27.29;43.65;97771.38;5072206;28;1244;-89
2021/08/13 01:34:00;;;;;;;;;;;;;;;27.30;43.22;97765.94;5061849;28;1376;-89
2021/08/13 01:36:26;;;;;;;;;;;;;;;27.40;43.12;97766.00;5059988;28;1577;-89
2021/08/13 01:38:51;;;;;;;;;;;;;;;27.35;43.15;97777.00;5060796;28;1336;-89
2021/08/13 01:41:16;;;;;;;;;;;;;;;27.27;43.42;97779.44;5061864;28;1164;-89
2021/08/13 01:43:42;;;;;;;;;;;;;;;27.38;43.29;97786.47;5060231;28;1600;-89
2021/08/13 01:46:07;;;;;;;;;;;;;;;27.32;43.30;97785.19;5061685;28;1262;-89
2021/08/13 01:48:33;;;;;;;;;;;;;;;27.38;42.99;97787.31;5060778;28;1516;-89
2021/08/13 01:50:58;;;;;;;;;;;;;;;27.33;43.35;97805.38;5070118;28;1961;-89
2021/08/13 01:53:23;;;;;;;;;;;;;;;27.40;42.99;97805.72;5061091;28;1172;-89
2021/08/13 01:55:49;;;;;;;;;;;;;;;27.45;43.04;97815.00;5063197;28;1172;-89
2021/08/13 01:58:14;;;;;;;;;;;;;;;27.44;43.28;97820.41;5069944;28;1454;-89
2021/08/13 02:00:39;;;;;;;;;;;;;;;27.29;43.24;97814.56;5062078;28;1112;-89
2021/08/13 02:03:06;;;;;;;;;;;;;;;27.30;43.46;97815.41;5071648;28;1202;-89
2021/08/13 02:05:32;;;;;;;;;;;;;;;27.45;43.10;97807.03;5066813;28;1512;-89
2021/08/13 02:07:57;;;;;;;;;;;;;;;27.36;43.32;97799.84;5066434;28;1449;-89
2021/08/13 02:10:22;;;;;;;;;;;;;;;27.35;43.05;97802.63;5058759;28;1913;-89
2021/08/13 02:12:47;;;;;;;;;;;;;;;27.33;43.10;97802.75;5081233;28;1467;-89
2021/08/13 02:15:13;;;;;;;;;;;;;;;27.36;43.25;97801.66;5082816;28;1418;-89
2021/08/13 02:17:39;;;;;;;;;;;;;;;27.40;42.93;97801.28;5061216;28;1351;-89
2021/08/13 02:20:08;;;;;;;;;;;;;;;27.37;43.27;97803.34;5059008;28;1525;-89
2021/08/13 02:22:33;;;;;;;;;;;;;;;27.39;43.23;97809.34;5039980;28;1524;-89
2021/08/13 02:24:58;;;;;;;;;;;;;;;27.35;43.28;97806.13;5061115;28;1312;-89
2021/08/13 02:27:25;;;;;;;;;;;;;;;27.36;42.98;97810.44;5059982;28;1597;-89
2021/08/13 02:29:51;;;;;;;;;;;;;;;27.36;43.20;97809.63;5057834;28;1965;-89
2021/08/13 02:32:16;;;;;;;;;;;;;;;27.35;43.44;97803.47;5062002;28;1183;-89
2021/08/13 02:34:41;;;;;;;;;;;;;;;27.52;42.98;97807.38;5070133;28;1307;-89
2021/08/13 02:37:08;;;;;;;;;;;;;;;27.38;43.20;97808.50;5058987;28;1587;-89
2021/08/13 02:39:36;;;;;;;;;;;;;;;27.37;43.10;97798.88;5058002;28;1327;-89
2021/08/13 02:42:02;;;;;;;;;;;;;;;27.40;43.17;97803.09;5069947;28;1543;-89
2021/08/13 02:44:27;;;;;;;;;;;;;;;27.45;43.14;97807.03;5043865;28;1310;-89
2021/08/13 02:46:53;;;;;;;;;;;;;;;27.44;42.80;97802.72;5044952;28;1217;-89
2021/08/13 02:49:18;;;;;;;;;;;;;;;27.49;42.92;97795.25;5060476;28;1898;-89
2021/08/13 02:51:43;;;;;;;;;;;;;;;27.45;42.97;97788.50;5068129;28;1619;-89
2021/08/13 02:54:11;;;;;;;;;;;;;;;27.39;43.12;97785.50;5056348;28;1522;-89
2021/08/13 02:56:37;;;;;;;;;;;;;;;27.38;43.27;97787.31;5059918;28;1545;-90
2021/08/13 02:59:02;;;;;;;;;;;;;;;27.38;43.17;97783.84;5057638;28;1216;-89
2021/08/13 03:01:29;;;;;;;;;;;;;;;27.30;43.13;97784.47;5062575;28;1192;-89
2021/08/13 03:03:54;;;;;;;;;;;;;;;27.30;43.30;97788.94;5059785;28;1431;-89
2021/08/13 03:06:19;;;;;;;;;;;;;;;27.37;43.20;97785.66;5068684;28;1635;-89
2021/08/13 03:08:48;;;;;;;;;;;;;;;27.34;43.40;97788.56;5059226;28;1373;-89
2021/08/13 03:11:14;;;;;;;;;;;;;;;27.45;43.01;97785.00;5058926;28;1965;-89
2021/08/13 03:13:39;;;;;;;;;;;;;;;27.35;43.16;97776.16;5068048;28;1603;-89
2021/08/13 03:16:04;;;;;;;;;;;;;;;27.47;42.87;97780.41;5055514;28;1569;-89
2021/08/13 03:18:29;;;;;;;;;;;;;;;27.37;43.34;97784.81;5042226;28;1393;-89
2021/08/13 03:20:55;;;;;;;;;;;;;;;27.34;43.36;97785.91;5057660;28;1383;-89
2021/08/13 03:23:20;;;;;;;;;;;;;;;27.38;43.46;97783.84;5069446;28;1615;-89
2021/08/13 03:25:45;;;;;;;;;;;;;;;27.32;43.34;97784.34;5068747;28;1226;-89
2021/08/13 03:28:10;;;;;;;;;;;;;;;27.37;43.38;97783.00;5058511;28;1531;-89
2021/08/13 03:30:39;;;;;;;;;;;;;;;27.32;43.53;97776.38;5069012;28;1971;-89
2021/08/13 03:33:05;;;;;;;;;;;;;;;27.36;43.17;97783.97;5060155;28;985;-89
2021/08/13 03:35:30;;;;;;;;;;;;;;;27.42;43.37;97783.47;5065032;28;1979;-89
2021/08/13 03:37:55;;;;;;;;;;;;;;;27.34;43.28;97785.91;5068341;28;1327;-89
2021/08/13 03:40:20;;;;;;;;;;;;;;;27.32;43.52;97774.59;5069422;28;1433;-89
2021/08/13 03:42:46;;;;;;;;;;;;;;;27.30;43.44;97775.69;5057835;28;1630;-89
2021/08/13 03:45:11;;;;;;;;;;;;;;;27.32;43.36;97777.22;5068887;28;1184;-88
2021/08/13 03:47:36;;;;;;;;;;;;;;;27.38;43.32;97774.09;5069076;28;1280;-89
2021/08/13 03:50:02;;;;;;;;;;;;;;;27.36;43.19;97777.84;5069345;28;1967;-89
2021/08/13 03:52:27;;;;;;;;;;;;;;;27.31;43.34;97780.00;5067694;28;1591;-89
2021/08/13 03:54:52;;;;;;;;;;;;;;;27.26;43.50;97783.91;5068787;28;1272;-89
2021/08/13 03:57:17;;;;;;;;;;;;;;;27.31;43.30;97774.72;5068669;28;1512;-89
2021/08/13 03:59:42;;;;;;;;;;;;;;;27.37;43.30;97784.81;5066910;28;1524;-89
2021/08/13 04:02:08;;;;;;;;;;;;;;;27.38;43.03;97778.53;5070002;28;1195;-89
2021/08/13 04:04:33;;;;;;;;;;;;;;;27.39;43.33;97782.88;5057253;28;1399;-89
2021/08/13 04:06:58;;;;;;;;;;;;;;;27.32;43.33;97782.53;5058855;28;1132;-89
2021/08/13 04:09:23;;;;;;;;;;;;;;;27.42;43.44;97785.28;5066233;28;1969;-89
2021/08/13 04:11:48;;;;;;;;;;;;;;;27.32;43.04;97787.81;5067478;28;1501;-89
2021/08/13 04:14:14;;;;;;;;;;;;;;;27.39;43.15;97788.16;5069099;28;1226;-89
2021/08/13 04:16:39;;;;;;;;;;;;;;;27.31;43.36;97793.25;5068954;28;1413;-89
2021/08/13 04:19:04;;;;;;;;;;;;;;;27.30;43.42;97787.13;5067226;28;1216;-89
2021/08/13 04:21:29;;;;;;;;;;;;;;;27.32;43.17;97787.81;5056566;28;1525;-89
2021/08/13 04:23:55;;;;;;;;;;;;;;;27.35;43.15;97787.59;5068352;28;1580;-89
2021/08/13 04:26:20;;;;;;;;;;;;;;;27.33;43.47;97793.97;5041107;28;1420;-89
2021/08/13 04:28:48;;;;;;;;;;;;;;;27.32;43.52;97792.28;5067535;28;1541;-89
2021/08/13 04:31:13;;;;;;;;;;;;;;;27.37;43.24;97790.94;5066889;28;1965;-89
2021/08/13 04:33:38;;;;;;;;;;;;;;;27.37;43.46;97796.25;5067232;28;1419;-89
2021/08/13 04:36:04;;;;;;;;;;;;;;;27.35;43.16;97786.75;5065806;28;1608;-89
2021/08/13 04:38:29;;;;;;;;;;;;;;;27.34;43.07;97793.03;5068315;28;1347;-89
2021/08/13 04:40:54;;;;;;;;;;;;;;;27.35;43.11;97794.69;5069061;28;1175;-89
2021/08/13 04:43:19;;;;;;;;;;;;;;;27.33;43.42;97802.75;5055252;28;1531;-89
2021/08/13 04:45:47;;;;;;;;;;;;;;;27.31;43.30;97804.69;5060959;28;1188;-89
2021/08/13 04:48:12;;;;;;;;;;;;;;;27.31;43.20;97802.03;5067180;28;1286;-89
2021/08/13 04:50:38;;;;;;;;;;;;;;;27.29;43.62;97797.84;5066917;28;1909;-89
2021/08/13 04:53:03;;;;;;;;;;;;;;;27.31;43.43;97802.03;5058809;28;1000;-89
2021/08/13 04:55:28;;;;;;;;;;;;;;;27.27;43.39;97801.47;5068107;28;1437;-89
2021/08/13 04:57:53;;;;;;;;;;;;;;;27.31;43.49;97791.44;5067783;28;1545;-89
2021/08/13 05:00:19;;;;;;;;;;;;;;;27.24;43.73;97787.63;5066817;28;1627;-89
2021/08/13 05:02:44;;;;;;;;;;;;;;;27.27;43.43;97796.16;5059963;28;1203;-89
2021/08/13 05:05:09;;;;;;;;;;;;;;;27.32;43.41;97797.56;5068751;28;1227;-89
2021/08/13 05:07:35;;;;;;;;;;;;;;;27.35;43.29;97800.00;5059934;28;1283;-89
2021/08/13 05:10:04;;;;;;;;;;;;;;;27.49;43.06;97808.47;5065328;28;1914;-89
2021/08/13 05:12:29;;;;;;;;;;;;;;;27.30;43.22;97807.47;5065930;28;1576;-89
2021/08/13 05:14:54;;;;;;;;;;;;;;;27.37;43.30;97804.19;5071308;28;1108;-89
2021/08/13 05:17:19;;;;;;;;;;;;;;;27.34;43.07;97814.22;5072520;28;1250;-89
2021/08/13 05:19:45;;;;;;;;;;;;;;;27.31;43.36;97825.88;5062500;28;1175;-90
2021/08/13 05:22:10;;;;;;;;;;;;;;;27.33;43.48;97821.28;5069016;28;1567;-89
2021/08/13 05:24:35;;;;;;;;;;;;;;;27.37;43.33;97819.25;5070489;28;1569;-89
2021/08/13 05:27:01;;;;;;;;;;;;;;;27.31;43.56;97817.91;5069814;28;1524;-90
2021/08/13 05:29:26;;;;;;;;;;;;;;;27.32;43.28;97827.53;5062536;28;1902;-90
2021/08/13 05:31:51;;;;;;;;;;;;;;;27.30;43.55;97837.44;5071227;28;1179;-90
2021/08/13 05:34:16;;;;;;;;;;;;;;;27.29;43.28;97834.91;5071328;28;1262;-90
2021/08/13 05:36:41;;;;;;;;;;;;;;;27.27;43.44;97843.81;5069624;28;1747;-90
2021/08/13 05:39:07;;;;;;;;;;;;;;;27.28;43.58;97836.72;5060181;28;1361;-90
2021/08/13 05:41:32;;;;;;;;;;;;;;;27.33;43.17;97839.81;5061520;28;1223;-90
2021/08/13 05:43:57;;;;;;;;;;;;;;;27.30;43.42;97847.19;5068882;28;1719;-90
2021/08/13 05:46:22;;;;;;;;;;;;;;;27.32;43.38;97854.03;5070441;28;1579;-90
2021/08/13 05:48:47;;;;;;;;;;;;;;;27.24;43.51;97859.94;5071258;28;1348;-90
2021/08/13 05:51:13;;;;;;;;;;;;;;;27.25;43.34;97856.34;5072077;28;1898;-89
2021/08/13 05:53:38;;;;;;;;;;;;;;;27.28;43.34;97855.25;5070340;28;1520;-89
2021/08/13 05:56:03;;;;;;;;;;;;;;;27.35;43.44;97855.59;5069688;28;1083;-89
2021/08/13 05:58:28;;;;;;;;;;;;;;;27.34;43.11;97853.94;5069115;28;1552;-89
2021/08/13 06:00:53;;;;;;;;;;;;;;;27.31;43.49;97855.00;5062430;28;1180;-89
2021/08/13 06:03:19;;;;;;;;;;;;;;;27.25;43.63;97848.41;5070824;28;1253;-90
2021/08/13 06:05:44;;;;;;;;;;;;;;;27.27;43.17;97848.28;5070195;28;1632;-89
2021/08/13 06:08:09;;;;;;;;;;;;;;;27.29;43.48;97843.69;5039548;28;1483;-90
2021/08/13 06:10:34;;;;;;;;;;;;;;;27.27;43.19;97835.88;5071281;28;1966;-89
2021/08/13 06:12:59;;;;;;;;;;;;;;;27.30;43.18;97839.25;5069327;28;1642;-89
2021/08/13 06:15:25;;;;;;;;;;;;;;;27.42;42.90;97844.38;5075461;28;1447;-91
2021/08/13 06:17:50;;;;;;;;;;;;;;;27.44;43.12;97853.03;5061860;28;1286;-92
2021/08/13 06:20:16;;;;;;;;;;;;;;;27.37;43.32;97851.84;5055091;28;1605;-91
2021/08/13 06:22:41;;;;;;;;;;;;;;;27.32;43.34;97854.03;5071468;28;1176;-91
2021/08/13 06:25:07;;;;;;;;;;;;;;;27.35;43.11;97850.31;5058761;28;1106;-90
2021/08/13 06:27:32;;;;;;;;;;;;;;;27.43;43.21;97856.66;5058664;28;1518;-90
2021/08/13 06:29:57;;;;;;;;;;;;;;;27.44;42.99;97863.63;5053224;28;1955;-91
2021/08/13 06:32:26;;;;;;;;;;;;;;;27.48;42.87;97859.75;5061760;28;1187;-90
2021/08/13 06:34:51;;;;;;;;;;;;;;;27.45;42.84;97867.97;5044326;28;1787;-90
2021/08/13 06:37:16;;;;;;;;;;;;;;;27.44;43.13;97873.41;5069693;28;1508;-91
2021/08/13 06:39:41;;;;;;;;;;;;;;;27.48;42.87;97873.00;5071545;28;1235;-90
2021/08/13 06:42:07;;;;;;;;;;;;;;;27.39;43.15;97870.25;5066761;28;1631;-91
2021/08/13 06:44:32;;;;;;;;;;;;;;;27.31;43.40;97880.63;5054869;28;1564;-91
2021/08/13 06:46:57;;;;;;;;;;;;;;;27.35;43.35;97890.88;5059987;28;1172;-91
2021/08/13 06:49:22;;;;;;;;;;;;;;;27.37;42.91;97890.75;5059590;28;1906;-90
2021/08/13 06:51:47;;;;;;;;;;;;;;;27.40;42.98;97896.63;5060686;28;1262;-91
2021/08/13 06:54:13;;;;;;;;;;;;;;;27.33;42.99;97903.38;5055460;28;1565;-90
2021/08/13 06:56:38;;;;;;;;;;;;;;;27.36;43.31;97911.09;5056339;28;1528;-90
2021/08/13 06:59:03;;;;;;;;;;;;;;;27.30;43.56;97916.03;5068329;28;1351;-91
2021/08/13 07:01:28;;;;;;;;;;;;;;;27.34;43.03;97928.09;5059223;28;1176;-91
2021/08/13 07:03:54;;;;;;;;;;;;;;;27.27;43.65;97943.63;5060284;28;1763;-91
2021/08/13 07:06:19;;;;;;;;;;;;;;;27.21;43.66;97973.22;5055085;28;1557;-91
2021/08/13 07:08:44;;;;;;;;;;;;;;;27.23;43.80;97990.66;5068608;28;1457;-91
2021/08/13 07:11:09;;;;;;;;;;;;;;;27.23;43.50;97993.31;5070228;28;2034;-92
2021/08/13 07:13:34;;;;;;;;;;;;;;;27.26;43.52;97992.25;5061467;28;1613;-92
2021/08/13 07:16:00;;;;;;;;;;;;;;;27.22;43.79;97985.50;5058185;28;1284;-92
2021/08/13 07:18:25;;;;;;;;;;;;;;;27.36;43.20;97985.25;5067452;28;1620;-92
2021/08/13 07:20:50;;;;;;;;;;;;;;;27.36;43.07;97976.47;5058812;28;1187;-92
2021/08/13 07:23:15;;;;;;;;;;;;;;;27.34;43.29;97954.56;5068271;28;1584;-92
2021/08/13 07:25:40;;;;;;;;;;;;;;;27.29;43.38;97954.06;5058086;28;1195;-91
2021/08/13 07:28:07;;;;;;;;;;;;;;;27.31;43.29;97942.38;5058318;28;1554;-92
2021/08/13 07:30:32;;;;;;;;;;;;;;;27.29;43.63;97935.53;5069999;28;1922;-93
2021/08/13 07:32:57;;;;;;;;;;;;;;;27.32;43.49;97924.69;5068489;28;1689;-93
2021/08/13 07:35:22;;;;;;;;;;;;;;;27.30;43.46;97895.69;5064899;28;1179;-93
2021/08/13 07:37:48;;;;;;;;;;;;;;;27.35;43.42;97880.28;5069274;28;1608;-93
2021/08/13 07:40:13;;;;;;;;;;;;;;;27.32;43.61;97872.56;5052234;28;1128;-92
2021/08/13 07:42:40;;;;;;;;;;;;;;;27.33;43.41;97852.22;5044640;28;1634;-93
2021/08/13 07:45:06;;;;;;;;;;;;;;;27.29;43.55;97846.34;5071111;28;1384;-94
2021/08/13 07:47:31;;;;;;;;;;;;;;;27.30;43.84;97831.28;5039285;28;1331;-93
2021/08/13 07:49:56;;;;;;;;;;;;;;;27.18;44.06;97828.69;5057420;28;1906;-93
2021/08/13 07:52:21;;;;;;;;;;;;;;;27.31;43.67;97817.91;5059208;28;1151;-92
2021/08/13 07:54:46;;;;;;;;;;;;;;;27.27;43.62;97817.34;5067553;28;1559;-93
2021/08/13 07:57:11;;;;;;;;;;;;;;;27.30;43.28;97826.84;5056557;28;1641;-93
2021/08/13 07:59:37;;;;;;;;;;;;;;;27.33;43.26;97831.88;5061550;28;1385;-92
2021/08/13 08:02:03;;;;;;;;;;;;;;;27.42;43.30;97854.16;5058455;28;1489;-92
2021/08/13 08:04:28;;;;;;;;;;;;;;;27.42;43.09;97862.94;5066677;28;1540;-92
2021/08/13 08:06:55;;;;;;;;;;;;;;;27.45;43.26;97865.31;5067766;28;1556;-92
2021/08/13 08:09:20;;;;;;;;;;;;;;;27.42;43.15;97872.69;5075924;28;1973;-93
2021/08/13 08:11:46;;;;;;;;;;;;;;;27.38;43.26;97885.31;5057562;28;1620;-92
2021/08/13 08:14:11;;;;;;;;;;;;;;;27.37;43.41;97885.44;5066328;28;1374;-91
2021/08/13 08:16:36;;;;;;;;;;;;;;;27.38;43.27;97892.41;5065350;28;1560;-91
2021/08/13 08:19:01;;;;;;;;;;;;;;;27.43;43.18;97892.91;5060068;28;1524;-90
2021/08/13 08:21:26;;;;;;;;;;;;;;;27.35;43.28;97895.34;5062895;28;1248;-91
2021/08/13 08:23:52;;;;;;;;;;;;;;;27.49;43.05;97895.03;5053979;28;1355;-90
2021/08/13 08:26:17;;;;;;;;;;;;;;;27.46;42.99;97900.59;5055933;28;1550;-91
2021/08/13 08:28:45;;;;;;;;;;;;;;;27.46;42.94;97904.06;5065087;28;1609;-89
2021/08/13 08:31:10;;;;;;;;;;;;;;;27.40;43.05;97909.88;5064382;28;1937;-89
2021/08/13 08:33:35;;;;;;;;;;;;;;;27.42;42.99;97907.97;5064167;28;1240;-89
2021/08/13 08:36:00;;;;;;;;;;;;;;;27.43;42.95;97917.59;5065292;28;1116;-89
2021/08/13 08:38:25;;;;;;;;;;;;;;;27.40;43.37;97909.88;5065670;28;1377;-89
2021/08/13 08:40:51;;;;;;;;;;;;;;;27.43;43.24;97927.34;5064952;28;1540;-89
2021/08/13 08:43:16;;;;;;;;;;;;;;;27.42;43.27;97920.38;5053656;28;1538;-89
2021/08/13 08:45:44;;;;;;;;;;;;;;;27.43;42.97;97930.81;5056781;28;1163;-89
2021/08/13 08:48:10;;;;;;;;;;;;;;;27.43;43.22;97927.34;5039653;28;1422;-89
2021/08/13 08:50:36;;;;;;;;;;;;;;;27.42;43.05;97929.16;5060083;28;1972;-89
2021/08/13 08:53:02;;;;;;;;;;;;;;;27.39;43.46;97928.53;5063451;28;1060;-89
2021/08/13 08:55:27;;;;;;;;;;;;;;;27.36;43.14;97932.28;5072517;28;1190;-89
2021/08/13 08:57:56;;;;;;;;;;;;;;;27.44;43.09;97940.44;5071341;28;1588;-89
2021/08/13 09:00:21;;;;;;;;;;;;;;;27.35;43.51;97941.19;5061666;28;1336;-89
2021/08/13 09:02:47;;;;;;;;;;;;;;;27.39;43.38;97937.31;5062118;28;1292;-89
2021/08/13 09:05:12;;;;;;;;;;;;;;;27.36;43.19;97931.44;5062594;28;1588;-89
2021/08/13 09:07:37;;;;;;;;;;;;;;;27.40;43.33;97944.28;5061594;28;1349;-89
2021/08/13 09:10:03;;;;;;;;;;;;;;;27.46;43.14;97935.88;5045308;28;1975;-89
2021/08/13 09:12:28;;;;;;;;;;;;;;;27.38;43.17;97937.44;5071409;28;1576;-89
2021/08/13 09:14:54;;;;;;;;;;;;;;;27.40;43.18;97938.16;5061985;28;1288;-89
2021/08/13 09:17:19;;;;;;;;;;;;;;;27.42;42.92;97936.25;5070220;28;1552;-89
2021/08/13 09:19:48;;;;;;;;;;;;;;;27.43;43.08;97925.53;5061815;28;1291;-89
2021/08/13 09:22:14;;;;;;;;;;;;;;;27.35;43.19;97930.59;5072428;28;1013;-89
2021/08/13 09:24:40;;;;;;;;;;;;;;;27.37;43.02;97933.13;5062398;28;1179;-89
2021/08/13 09:27:19;;;;;;;;;;;;;;;27.43;43.29;97943.22;5068795;28;1595;-89
2021/08/13 09:30:03;;;;;;;;;;;;;;;27.36;43.39;97936.75;5069939;28;2044;-89
2021/08/13 09:32:28;;;;;;;;;;;;;;;27.37;43.25;97949.00;5069199;28;1619;-89
2021/08/13 09:34:55;;;;;;;;;;;;;;;27.40;43.03;97954.06;5071315;28;1465;-89
2021/08/13 09:37:20;;;;;;;;;;;;;;;27.28;43.24;97945.28;5085272;28;1269;-90
2021/08/13 09:39:45;;;;;;;;;;;;;;;27.35;43.26;97946.50;5098850;28;1147;-89
2021/08/13 09:42:11;;;;;;;;;;;;;;;27.33;43.49;97948.41;5050824;28;1619;-89
2021/08/13 09:44:45;;;;;;;;;;;;;;;27.40;43.05;97962.84;5063137;28;1330;-89
2021/08/13 09:47:11;;;;;;;;;;;;;;;27.50;42.91;97955.03;5016331;28;1389;-89
2021/08/13 09:49:37;;;;;;;;;;;;;;;27.55;42.52;97953.66;5070913;28;1902;-89
2021/08/13 09:52:12;;;;;;;;;;;;;;;27.44;43.22;97951.03;5059139;28;1691;-89
2021/08/13 09:54:37;;;;;;;;;;;;;;;27.40;43.18;97952.25;5061529;28;1397;-89
2021/08/13 09:57:09;;;;;;;;;;;;;;;27.40;43.22;97944.28;5061532;28;1610;-89
2021/08/13 09:59:34;;;;;;;;;;;;;;;27.39;43.17;97949.72;5057249;28;1229;-89
2021/08/13 10:01:59;;;;;;;;;;;;;;;27.42;43.11;97941.56;5071505;28;1124;-89
2021/08/13 10:04:32;;;;;;;;;;;;;;;27.40;43.15;97944.28;5060465;28;1188;-89
2021/08/13 10:06:57;;;;;;;;;;;;;;;27.34;43.46;97954.56;5070597;28;1615;-89
2021/08/13 10:09:23;;;;;;;;;;;;;;;27.37;43.41;97956.97;5070415;28;1902;-89
2021/08/13 10:11:55;;;;;;;;;;;;;;;27.45;42.96;97963.31;5059920;28;1646;-89
2021/08/13 10:14:32;;;;;;;;;;;;;;;27.44;43.09;97968.75;5069549;28;1280;-89
2021/08/13 10:17:06;;;;;;;;;;;;;;;27.42;43.18;97968.88;5069304;28;1639;-89
2021/08/13 10:19:32;;;;;;;;;;;;;;;27.31;43.17;97963.56;5070207;28;1523;-89
2021/08/13 10:21:57;;;;;;;;;;;;;;;27.40;43.09;97959.34;5060952;28;1247;-89
2021/08/13 10:24:23;;;;;;;;;;;;;;;27.46;43.11;97970.28;5070051;28;1369;-89
2021/08/13 10:26:48;;;;;;;;;;;;;;;27.39;43.12;97966.44;5058924;28;1565;-89
2021/08/13 10:29:13;;;;;;;;;;;;;;;27.33;43.42;97969.59;5061312;28;1379;-89
2021/08/13 10:31:38;;;;;;;;;;;;;;;27.40;42.90;97975.25;5068909;28;1902;-89
2021/08/13 10:34:04;;;;;;;;;;;;;;;27.40;43.17;97964.66;5043261;28;1520;-89
2021/08/13 10:36:29;;;;;;;;;;;;;;;27.39;43.13;97966.44;5061324;28;1117;-89
2021/08/13 10:38:54;;;;;;;;;;;;;;;27.43;42.98;97967.06;5057053;28;1579;-89
2021/08/13 10:41:21;;;;;;;;;;;;;;;27.35;43.41;97966.84;5060804;28;1159;-89
2021/08/13 10:43:47;;;;;;;;;;;;;;;27.36;43.12;97977.31;5056732;28;2052;-89
2021/08/13 10:46:12;;;;;;;;;;;;;;;27.44;43.19;97971.41;5071188;28;1358;-89
2021/08/13 10:48:40;;;;;;;;;;;;;;;27.43;43.08;97969.72;5061081;28;1263;-89
2021/08/13 10:51:06;;;;;;;;;;;;;;;27.42;43.29;97963.59;5056710;28;1973;-89
2021/08/13 10:53:32;;;;;;;;;;;;;;;27.39;43.35;97957.66;5060124;28;1084;-89
2021/08/13 10:56:00;;;;;;;;;;;;;;;27.36;43.21;97955.28;5069906;28;1211;-89
2021/08/13 10:58:41;;;;;;;;;;;;;;;27.39;42.91;97955.03;5068605;28;1678;-89
2021/08/13 11:01:10;;;;;;;;;;;;;;;27.38;43.21;97950.69;5068355;28;1013;-89
2021/08/13 11:03:36;;;;;;;;;;;;;;;27.34;43.29;97944.81;5059380;28;1246;-89
2021/08/13 11:06:02;;;;;;;;;;;;;;;27.38;43.23;97940.09;5070160;28;1286;-89
2021/08/13 11:08:39;;;;;;;;;;;;;;;27.40;43.10;97943.47;5058015;28;1868;-89
2021/08/13 11:11:04;;;;;;;;;;;;;;;27.46;42.80;97935.03;5069722;28;1942;-89
2021/08/13 11:13:34;;;;;;;;;;;;;;;27.39;43.11;97952.38;5069439;28;1569;-89
2021/08/13 11:15:59;;;;;;;;;;;;;;;27.43;43.11;97943.22;5070559;28;1198;-89
2021/08/13 11:18:25;;;;;;;;;;;;;;;27.39;43.03;97936.47;5069209;28;1256;-89
2021/08/13 11:20:50;;;;;;;;;;;;;;;27.36;43.15;97934.09;5058483;28;1554;-89
2021/08/13 11:23:15;;;;;;;;;;;;;;;27.42;43.11;97933.59;5068374;28;1379;-89
2021/08/13 11:25:47;;;;;;;;;;;;;;;27.49;42.96;97933.00;5060356;28;1240;-89
2021/08/13 11:28:17;;;;;;;;;;;;;;;27.43;42.87;97937.94;5057750;28;1569;-89
2021/08/13 11:30:42;;;;;;;;;;;;;;;27.41;43.16;97924.81;5069986;28;1967;-89
2021/08/13 11:33:25;;;;;;;;;;;;;;;27.40;43.13;97931.06;5067497;28;1119;-89
2021/08/13 11:35:50;;;;;;;;;;;;;;;27.38;43.12;97927.69;5068668;28;1580;-89
2021/08/13 11:38:22;;;;;;;;;;;;;;;27.40;43.26;97922.25;5069518;28;1356;-89
2021/08/13 11:40:47;;;;;;;;;;;;;;;27.44;43.16;97921.91;5060978;28;1299;-89
2021/08/13 11:43:13;;;;;;;;;;;;;;;27.43;43.04;97919.38;5067244;28;1584;-89
2021/08/13 11:45:42;;;;;;;;;;;;;;;27.45;43.16;97909.50;5060657;28;1243;-89
2021/08/13 11:48:08;;;;;;;;;;;;;;;27.42;42.92;97913.25;5058859;28;1436;-89
2021/08/13 11:50:34;;;;;;;;;;;;;;;27.39;43.32;97910.84;5058199;28;1963;-89
2021/08/13 11:52:59;;;;;;;;;;;;;;;27.47;42.99;97907.56;5040962;28;1345;-89
2021/08/13 11:55:25;;;;;;;;;;;;;;;27.42;43.28;97897.38;5070134;28;1234;-89
2021/08/13 11:57:54;;;;;;;;;;;;;;;27.40;43.15;97901.91;5065500;28;1689;-89
2021/08/13 12:00:20;;;;;;;;;;;;;;;27.44;43.09;97903.38;5061816;28;1254;-89
2021/08/13 12:02:45;;;;;;;;;;;;;;;27.45;43.12;97915.63;5068451;28;1377;-89
2021/08/13 12:05:11;;;;;;;;;;;;;;;27.46;42.94;97912.03;5069160;28;1559;-89
2021/08/13 12:07:36;;;;;;;;;;;;;;;27.41;43.35;97914.22;5057501;28;2009;-89
2021/08/13 12:10:11;;;;;;;;;;;;;;;27.38;43.12;97910.97;5068739;28;1905;-89
2021/08/13 12:12:36;;;;;;;;;;;;;;;27.39;43.15;97913.47;5056525;28;2013;-89
2021/08/13 12:15:01;;;;;;;;;;;;;;;27.43;43.25;97917.59;5068407;28;1497;-89
2021/08/13 12:17:27;;;;;;;;;;;;;;;27.36;43.27;97908.44;5069847;28;1372;-89
2021/08/13 12:19:55;;;;;;;;;;;;;;;27.40;42.99;97901.91;5058679;28;1164;-89
2021/08/13 12:22:28;;;;;;;;;;;;;;;27.41;43.21;97903.63;5058093;28;1573;-89
2021/08/13 12:24:53;;;;;;;;;;;;;;;27.42;43.09;97899.16;5073940;28;1246;-89
2021/08/13 12:27:18;;;;;;;;;;;;;;;27.41;43.23;97903.63;5071086;28;1604;-89
2021/08/13 12:29:43;;;;;;;;;;;;;;;27.42;43.05;97900.00;5070053;28;1967;-89
2021/08/13 12:32:08;;;;;;;;;;;;;;;27.42;43.14;97893.88;5072427;28;1825;-89
2021/08/13 12:34:34;;;;;;;;;;;;;;;27.45;42.70;97885.66;5072657;28;1112;-89
2021/08/13 12:37:00;;;;;;;;;;;;;;;27.45;42.96;97878.56;5060543;28;1558;-89
2021/08/13 12:39:26;;;;;;;;;;;;;;;27.42;43.11;97884.13;5062886;28;1239;-89
2021/08/13 12:41:51;;;;;;;;;;;;;;;27.51;42.77;97885.19;5070108;28;1560;-89
2021/08/13 12:44:16;;;;;;;;;;;;;;;27.42;42.91;97883.28;5060379;28;1254;-89
2021/08/13 12:46:44;;;;;;;;;;;;;;;27.47;43.04;97875.78;5062126;28;1194;-89
2021/08/13 12:49:09;;;;;;;;;;;;;;;27.46;42.84;97884.69;5060162;28;1419;-89
2021/08/13 12:51:35;;;;;;;;;;;;;;;27.41;43.01;97871.84;5063721;28;1965;-89